sensor_id;sensor_type;location;lat;lon;timestamp;P1;durP1;ratioP1;P2;durP2;ratioP2
10537;SDS011;5317;49.048;8.468;2023-06-24T00:00:05;4.90;;;4.50;;
10537;SDS011;5317;49.048;8.468;2023-06-24T00:02:36;5.13;;;4.63;;
10537;SDS011;5317;49.048;8.468;2023-06-24T00:05:02;5.90;;;4.70;;
10537;SDS011;5317;49.048;8.468;2023-06-24T00:07:30;5.67;;;4.70;;
10537;SDS011;5317;49.048;8.468;2023-06-24T00:10:00;5.13;;;4.63;;
10537;SDS011;5317;49.048;8.468;2023-06-24T00:12:28;5.47;;;4.87;;
10537;SDS011;5317;49.048;8.468;2023-06-24T00:14:56;7.60;;;5.07;;
10537;SDS011;5317;49.048;8.468;2023-06-24T00:17:26;4.93;;;4.47;;
10537;SDS011;5317;49.048;8.468;2023-06-24T00:19:53;5.00;;;4.47;;
10537;SDS011;5317;49.048;8.468;2023-06-24T00:22:20;5.97;;;4.93;;
10537;SDS011;5317;49.048;8.468;2023-06-24T00:24:53;5.43;;;4.93;;
10537;SDS011;5317;49.048;8.468;2023-06-24T00:27:20;6.13;;;5.53;;
10537;SDS011;5317;49.048;8.468;2023-06-24T00:29:48;5.60;;;5.10;;
10537;SDS011;5317;49.048;8.468;2023-06-24T00:32:16;5.60;;;4.90;;
10537;SDS011;5317;49.048;8.468;2023-06-24T00:34:43;5.47;;;4.90;;
10537;SDS011;5317;49.048;8.468;2023-06-24T00:37:13;5.50;;;4.97;;
10537;SDS011;5317;49.048;8.468;2023-06-24T00:39:40;5.20;;;4.67;;
10537;SDS011;5317;49.048;8.468;2023-06-24T00:42:07;5.40;;;4.90;;
10537;SDS011;5317;49.048;8.468;2023-06-24T00:44:37;6.43;;;5.03;;
10537;SDS011;5317;49.048;8.468;2023-06-24T00:47:05;5.73;;;5.23;;
10537;SDS011;5317;49.048;8.468;2023-06-24T00:49:37;6.07;;;5.20;;
10537;SDS011;5317;49.048;8.468;2023-06-24T00:52:04;4.90;;;4.40;;
10537;SDS011;5317;49.048;8.468;2023-06-24T00:54:32;5.80;;;5.20;;
10537;SDS011;5317;49.048;8.468;2023-06-24T00:57:01;5.67;;;5.17;;
10537;SDS011;5317;49.048;8.468;2023-06-24T00:59:28;5.70;;;5.20;;
10537;SDS011;5317;49.048;8.468;2023-06-24T01:01:57;5.37;;;4.87;;
10537;SDS011;5317;49.048;8.468;2023-06-24T01:04:29;6.57;;;4.57;;
10537;SDS011;5317;49.048;8.468;2023-06-24T01:07:02;5.27;;;4.47;;
10537;SDS011;5317;49.048;8.468;2023-06-24T01:09:31;5.10;;;4.60;;
10537;SDS011;5317;49.048;8.468;2023-06-24T01:12:01;6.03;;;5.03;;
10537;SDS011;5317;49.048;8.468;2023-06-24T01:14:28;7.07;;;4.87;;
10537;SDS011;5317;49.048;8.468;2023-06-24T01:16:56;6.13;;;5.63;;
10537;SDS011;5317;49.048;8.468;2023-06-24T01:19:37;5.80;;;5.23;;
10537;SDS011;5317;49.048;8.468;2023-06-24T01:25:44;7.53;;;5.40;;
10537;SDS011;5317;49.048;8.468;2023-06-24T01:28:33;5.23;;;4.80;;
10537;SDS011;5317;49.048;8.468;2023-06-24T01:31:34;5.47;;;4.97;;
10537;SDS011;5317;49.048;8.468;2023-06-24T01:34:10;6.13;;;5.53;;
10537;SDS011;5317;49.048;8.468;2023-06-24T01:36:46;5.33;;;4.70;;
10537;SDS011;5317;49.048;8.468;2023-06-24T01:39:20;5.53;;;4.90;;
10537;SDS011;5317;49.048;8.468;2023-06-24T01:41:59;5.83;;;5.33;;
10537;SDS011;5317;49.048;8.468;2023-06-24T01:44:31;5.43;;;4.93;;
10537;SDS011;5317;49.048;8.468;2023-06-24T01:47:04;5.13;;;4.63;;
10537;SDS011;5317;49.048;8.468;2023-06-24T01:49:32;5.43;;;4.93;;
10537;SDS011;5317;49.048;8.468;2023-06-24T01:52:08;7.47;;;5.57;;
10537;SDS011;5317;49.048;8.468;2023-06-24T01:54:39;6.67;;;5.17;;
10537;SDS011;5317;49.048;8.468;2023-06-24T01:57:08;6.60;;;5.03;;
10537;SDS011;5317;49.048;8.468;2023-06-24T01:59:41;5.73;;;5.03;;
10537;SDS011;5317;49.048;8.468;2023-06-24T02:02:18;5.70;;;5.20;;
10537;SDS011;5317;49.048;8.468;2023-06-24T02:04:45;5.50;;;4.83;;
10537;SDS011;5317;49.048;8.468;2023-06-24T02:07:18;6.97;;;5.10;;
10537;SDS011;5317;49.048;8.468;2023-06-24T02:09:46;8.03;;;5.27;;
10537;SDS011;5317;49.048;8.468;2023-06-24T02:12:16;5.53;;;5.03;;
10537;SDS011;5317;49.048;8.468;2023-06-24T02:14:43;5.70;;;5.20;;
10537;SDS011;5317;49.048;8.468;2023-06-24T02:17:14;6.30;;;5.60;;
10537;SDS011;5317;49.048;8.468;2023-06-24T02:19:43;11.93;;;6.17;;
10537;SDS011;5317;49.048;8.468;2023-06-24T02:22:17;7.40;;;5.57;;
10537;SDS011;5317;49.048;8.468;2023-06-24T02:24:46;7.83;;;5.23;;
10537;SDS011;5317;49.048;8.468;2023-06-24T02:27:18;10.53;;;5.93;;
10537;SDS011;5317;49.048;8.468;2023-06-24T02:29:46;7.23;;;5.13;;
10537;SDS011;5317;49.048;8.468;2023-06-24T02:32:17;9.67;;;5.87;;
10537;SDS011;5317;49.048;8.468;2023-06-24T02:34:46;7.17;;;5.10;;
10537;SDS011;5317;49.048;8.468;2023-06-24T02:37:15;10.40;;;5.83;;
10537;SDS011;5317;49.048;8.468;2023-06-24T02:39:42;11.23;;;5.73;;
10537;SDS011;5317;49.048;8.468;2023-06-24T02:42:10;10.23;;;5.30;;
10537;SDS011;5317;49.048;8.468;2023-06-24T02:44:39;9.07;;;5.63;;
10537;SDS011;5317;49.048;8.468;2023-06-24T02:47:07;9.87;;;5.63;;
10537;SDS011;5317;49.048;8.468;2023-06-24T02:49:39;9.93;;;5.20;;
10537;SDS011;5317;49.048;8.468;2023-06-24T02:52:09;11.70;;;5.93;;
10537;SDS011;5317;49.048;8.468;2023-06-24T02:54:42;11.87;;;6.40;;
10537;SDS011;5317;49.048;8.468;2023-06-24T02:57:10;8.73;;;5.90;;
10537;SDS011;5317;49.048;8.468;2023-06-24T02:59:40;7.40;;;5.67;;
10537;SDS011;5317;49.048;8.468;2023-06-24T03:02:07;9.90;;;6.07;;
10537;SDS011;5317;49.048;8.468;2023-06-24T03:04:41;10.73;;;6.40;;
10537;SDS011;5317;49.048;8.468;2023-06-24T03:07:09;9.73;;;5.87;;
10537;SDS011;5317;49.048;8.468;2023-06-24T03:09:53;11.27;;;5.63;;
10537;SDS011;5317;49.048;8.468;2023-06-24T03:12:20;6.83;;;5.30;;
10537;SDS011;5317;49.048;8.468;2023-06-24T03:14:47;13.03;;;5.37;;
10537;SDS011;5317;49.048;8.468;2023-06-24T03:17:19;10.03;;;5.43;;
10537;SDS011;5317;49.048;8.468;2023-06-24T03:19:46;7.03;;;5.67;;
10537;SDS011;5317;49.048;8.468;2023-06-24T03:22:16;12.67;;;6.37;;
10537;SDS011;5317;49.048;8.468;2023-06-24T03:24:43;11.27;;;5.90;;
10537;SDS011;5317;49.048;8.468;2023-06-24T03:27:10;8.33;;;5.67;;
10537;SDS011;5317;49.048;8.468;2023-06-24T03:29:39;7.47;;;5.70;;
10537;SDS011;5317;49.048;8.468;2023-06-24T03:32:06;8.13;;;5.67;;
10537;SDS011;5317;49.048;8.468;2023-06-24T03:34:33;9.53;;;5.47;;
10537;SDS011;5317;49.048;8.468;2023-06-24T03:37:00;8.03;;;5.57;;
10537;SDS011;5317;49.048;8.468;2023-06-24T03:39:33;11.17;;;6.00;;
10537;SDS011;5317;49.048;8.468;2023-06-24T03:41:59;14.50;;;5.83;;
10537;SDS011;5317;49.048;8.468;2023-06-24T03:44:37;11.17;;;5.90;;
10537;SDS011;5317;49.048;8.468;2023-06-24T03:47:04;12.03;;;5.40;;
10537;SDS011;5317;49.048;8.468;2023-06-24T03:49:34;15.63;;;6.50;;
10537;SDS011;5317;49.048;8.468;2023-06-24T03:52:01;10.60;;;5.80;;
10537;SDS011;5317;49.048;8.468;2023-06-24T03:54:33;10.77;;;6.03;;
10537;SDS011;5317;49.048;8.468;2023-06-24T03:57:00;10.53;;;5.83;;
10537;SDS011;5317;49.048;8.468;2023-06-24T03:59:27;8.30;;;5.70;;
10537;SDS011;5317;49.048;8.468;2023-06-24T04:01:56;10.47;;;5.87;;
10537;SDS011;5317;49.048;8.468;2023-06-24T04:04:23;11.93;;;5.97;;
10537;SDS011;5317;49.048;8.468;2023-06-24T04:06:50;9.07;;;6.00;;
10537;SDS011;5317;49.048;8.468;2023-06-24T04:09:20;10.43;;;6.43;;
10537;SDS011;5317;49.048;8.468;2023-06-24T04:11:48;11.00;;;5.47;;
10537;SDS011;5317;49.048;8.468;2023-06-24T04:14:15;6.00;;;5.40;;
10537;SDS011;5317;49.048;8.468;2023-06-24T04:16:52;8.37;;;5.80;;
10537;SDS011;5317;49.048;8.468;2023-06-24T04:19:25;5.50;;;5.00;;
10537;SDS011;5317;49.048;8.468;2023-06-24T04:21:52;6.73;;;5.23;;
10537;SDS011;5317;49.048;8.468;2023-06-24T04:24:24;6.63;;;5.80;;
10537;SDS011;5317;49.048;8.468;2023-06-24T04:26:52;9.30;;;5.10;;
10537;SDS011;5317;49.048;8.468;2023-06-24T04:29:25;8.83;;;5.00;;
10537;SDS011;5317;49.048;8.468;2023-06-24T04:31:52;8.73;;;5.37;;
10537;SDS011;5317;49.048;8.468;2023-06-24T04:34:25;5.90;;;5.20;;
10537;SDS011;5317;49.048;8.468;2023-06-24T04:36:52;9.23;;;5.50;;
10537;SDS011;5317;49.048;8.468;2023-06-24T04:39:22;8.43;;;5.17;;
10537;SDS011;5317;49.048;8.468;2023-06-24T04:41:48;5.77;;;4.83;;
10537;SDS011;5317;49.048;8.468;2023-06-24T04:44:17;7.53;;;5.83;;
10537;SDS011;5317;49.048;8.468;2023-06-24T04:46:47;10.40;;;6.80;;
10537;SDS011;5317;49.048;8.468;2023-06-24T04:49:14;8.67;;;6.40;;
10537;SDS011;5317;49.048;8.468;2023-06-24T04:51:40;12.33;;;6.43;;
10537;SDS011;5317;49.048;8.468;2023-06-24T04:54:13;9.87;;;6.00;;
10537;SDS011;5317;49.048;8.468;2023-06-24T04:56:40;7.87;;;5.80;;
10537;SDS011;5317;49.048;8.468;2023-06-24T04:59:09;6.40;;;5.17;;
10537;SDS011;5317;49.048;8.468;2023-06-24T05:01:37;6.23;;;5.43;;
10537;SDS011;5317;49.048;8.468;2023-06-24T05:04:04;7.80;;;5.77;;
10537;SDS011;5317;49.048;8.468;2023-06-24T05:06:33;9.43;;;5.73;;
10537;SDS011;5317;49.048;8.468;2023-06-24T05:09:00;5.83;;;5.03;;
10537;SDS011;5317;49.048;8.468;2023-06-24T05:11:27;5.40;;;4.90;;
10537;SDS011;5317;49.048;8.468;2023-06-24T05:13:54;6.23;;;5.30;;
10537;SDS011;5317;49.048;8.468;2023-06-24T05:16:27;4.60;;;4.20;;
10537;SDS011;5317;49.048;8.468;2023-06-24T05:18:55;6.10;;;4.87;;
10537;SDS011;5317;49.048;8.468;2023-06-24T05:21:24;5.27;;;4.77;;
10537;SDS011;5317;49.048;8.468;2023-06-24T05:23:51;5.70;;;4.30;;
10537;SDS011;5317;49.048;8.468;2023-06-24T05:26:24;5.20;;;4.70;;
10537;SDS011;5317;49.048;8.468;2023-06-24T05:28:50;5.60;;;4.43;;
10537;SDS011;5317;49.048;8.468;2023-06-24T05:31:21;5.30;;;4.50;;
10537;SDS011;5317;49.048;8.468;2023-06-24T05:33:48;5.93;;;5.07;;
10537;SDS011;5317;49.048;8.468;2023-06-24T05:36:16;7.43;;;5.10;;
10537;SDS011;5317;49.048;8.468;2023-06-24T05:38:45;5.17;;;4.33;;
10537;SDS011;5317;49.048;8.468;2023-06-24T05:41:13;4.93;;;4.43;;
10537;SDS011;5317;49.048;8.468;2023-06-24T05:43:42;5.00;;;4.50;;
10537;SDS011;5317;49.048;8.468;2023-06-24T05:46:12;5.20;;;4.70;;
10537;SDS011;5317;49.048;8.468;2023-06-24T05:48:39;4.63;;;4.20;;
10537;SDS011;5317;49.048;8.468;2023-06-24T05:51:10;5.90;;;4.50;;
10537;SDS011;5317;49.048;8.468;2023-06-24T05:53:39;4.50;;;4.10;;
10537;SDS011;5317;49.048;8.468;2023-06-24T05:56:12;5.83;;;4.13;;
10537;SDS011;5317;49.048;8.468;2023-06-24T05:58:39;4.70;;;4.20;;
10537;SDS011;5317;49.048;8.468;2023-06-24T06:01:09;4.57;;;4.17;;
10537;SDS011;5317;49.048;8.468;2023-06-24T06:03:36;5.73;;;4.00;;
10537;SDS011;5317;49.048;8.468;2023-06-24T06:06:03;5.07;;;4.13;;
10537;SDS011;5317;49.048;8.468;2023-06-24T06:08:33;4.73;;;4.23;;
10537;SDS011;5317;49.048;8.468;2023-06-24T06:11:01;4.87;;;4.47;;
10537;SDS011;5317;49.048;8.468;2023-06-24T06:13:28;5.07;;;4.20;;
10537;SDS011;5317;49.048;8.468;2023-06-24T06:15:58;4.67;;;4.27;;
10537;SDS011;5317;49.048;8.468;2023-06-24T06:18:25;4.47;;;4.10;;
10537;SDS011;5317;49.048;8.468;2023-06-24T06:20:52;4.07;;;3.70;;
10537;SDS011;5317;49.048;8.468;2023-06-24T06:23:21;4.53;;;4.13;;
10537;SDS011;5317;49.048;8.468;2023-06-24T06:25:48;6.33;;;4.20;;
10537;SDS011;5317;49.048;8.468;2023-06-24T06:28:17;4.10;;;3.77;;
10537;SDS011;5317;49.048;8.468;2023-06-24T06:30:45;5.37;;;4.03;;
10537;SDS011;5317;49.048;8.468;2023-06-24T06:33:12;4.40;;;4.00;;
10537;SDS011;5317;49.048;8.468;2023-06-24T06:35:39;5.23;;;3.90;;
10537;SDS011;5317;49.048;8.468;2023-06-24T06:38:06;4.27;;;3.87;;
10537;SDS011;5317;49.048;8.468;2023-06-24T06:40:36;4.80;;;4.40;;
10537;SDS011;5317;49.048;8.468;2023-06-24T06:43:03;4.80;;;4.00;;
10537;SDS011;5317;49.048;8.468;2023-06-24T06:45:34;5.00;;;4.20;;
10537;SDS011;5317;49.048;8.468;2023-06-24T06:48:01;4.63;;;4.23;;
10537;SDS011;5317;49.048;8.468;2023-06-24T06:50:32;4.30;;;3.80;;
10537;SDS011;5317;49.048;8.468;2023-06-24T06:52:59;5.20;;;4.30;;
10537;SDS011;5317;49.048;8.468;2023-06-24T06:55:28;6.50;;;3.93;;
10537;SDS011;5317;49.048;8.468;2023-06-24T06:57:55;5.97;;;4.30;;
10537;SDS011;5317;49.048;8.468;2023-06-24T07:00:22;4.83;;;4.20;;
10537;SDS011;5317;49.048;8.468;2023-06-24T07:02:50;5.10;;;4.00;;
10537;SDS011;5317;49.048;8.468;2023-06-24T07:05:23;4.50;;;4.00;;
10537;SDS011;5317;49.048;8.468;2023-06-24T07:07:50;5.33;;;4.37;;
10537;SDS011;5317;49.048;8.468;2023-06-24T07:10:25;5.23;;;4.10;;
10537;SDS011;5317;49.048;8.468;2023-06-24T07:12:54;4.27;;;3.87;;
10537;SDS011;5317;49.048;8.468;2023-06-24T07:15:23;4.53;;;4.13;;
10537;SDS011;5317;49.048;8.468;2023-06-24T07:17:52;5.30;;;4.60;;
10537;SDS011;5317;49.048;8.468;2023-06-24T07:20:21;5.20;;;3.97;;
10537;SDS011;5317;49.048;8.468;2023-06-24T07:22:54;4.03;;;3.67;;
10537;SDS011;5317;49.048;8.468;2023-06-24T07:25:21;5.37;;;4.87;;
10537;SDS011;5317;49.048;8.468;2023-06-24T07:27:48;5.37;;;4.20;;
10537;SDS011;5317;49.048;8.468;2023-06-24T07:30:15;4.70;;;4.30;;
10537;SDS011;5317;49.048;8.468;2023-06-24T07:32:42;4.20;;;3.80;;
10537;SDS011;5317;49.048;8.468;2023-06-24T07:35:13;4.60;;;4.03;;
10537;SDS011;5317;49.048;8.468;2023-06-24T07:37:41;4.30;;;3.47;;
10537;SDS011;5317;49.048;8.468;2023-06-24T07:40:10;4.50;;;3.87;;
10537;SDS011;5317;49.048;8.468;2023-06-24T07:42:37;4.70;;;4.20;;
10537;SDS011;5317;49.048;8.468;2023-06-24T07:45:04;5.47;;;4.37;;
10537;SDS011;5317;49.048;8.468;2023-06-24T07:47:34;4.50;;;4.10;;
10537;SDS011;5317;49.048;8.468;2023-06-24T07:50:01;4.57;;;4.13;;
10537;SDS011;5317;49.048;8.468;2023-06-24T07:52:29;5.97;;;4.07;;
10537;SDS011;5317;49.048;8.468;2023-06-24T07:54:58;4.40;;;4.00;;
10537;SDS011;5317;49.048;8.468;2023-06-24T07:57:26;5.37;;;4.13;;
10537;SDS011;5317;49.048;8.468;2023-06-24T07:59:53;4.93;;;4.43;;
10537;SDS011;5317;49.048;8.468;2023-06-24T08:02:22;5.40;;;4.00;;
10537;SDS011;5317;49.048;8.468;2023-06-24T08:04:49;4.47;;;4.07;;
10537;SDS011;5317;49.048;8.468;2023-06-24T08:07:16;4.37;;;3.97;;
10537;SDS011;5317;49.048;8.468;2023-06-24T08:09:44;5.37;;;4.00;;
10537;SDS011;5317;49.048;8.468;2023-06-24T08:12:13;7.97;;;4.53;;
10537;SDS011;5317;49.048;8.468;2023-06-24T08:14:39;6.77;;;4.23;;
10537;SDS011;5317;49.048;8.468;2023-06-24T08:17:06;4.87;;;3.90;;
10537;SDS011;5317;49.048;8.468;2023-06-24T08:19:39;5.33;;;4.13;;
10537;SDS011;5317;49.048;8.468;2023-06-24T08:22:10;3.83;;;3.30;;
10537;SDS011;5317;49.048;8.468;2023-06-24T08:24:37;4.13;;;3.73;;
10537;SDS011;5317;49.048;8.468;2023-06-24T08:27:05;5.73;;;4.50;;
10537;SDS011;5317;49.048;8.468;2023-06-24T08:29:34;3.90;;;3.60;;
10537;SDS011;5317;49.048;8.468;2023-06-24T08:32:02;4.37;;;3.70;;
10537;SDS011;5317;49.048;8.468;2023-06-24T08:34:34;4.10;;;3.70;;
10537;SDS011;5317;49.048;8.468;2023-06-24T08:37:01;4.50;;;3.80;;
10537;SDS011;5317;49.048;8.468;2023-06-24T08:39:28;4.30;;;3.90;;
10537;SDS011;5317;49.048;8.468;2023-06-24T08:41:58;3.93;;;3.53;;
10537;SDS011;5317;49.048;8.468;2023-06-24T08:44:26;3.67;;;3.20;;
10537;SDS011;5317;49.048;8.468;2023-06-24T08:46:53;4.23;;;3.50;;
10537;SDS011;5317;49.048;8.468;2023-06-24T08:49:25;4.20;;;3.80;;
10537;SDS011;5317;49.048;8.468;2023-06-24T08:52:00;5.27;;;3.50;;
10537;SDS011;5317;49.048;8.468;2023-06-24T08:54:30;4.33;;;3.73;;
10537;SDS011;5317;49.048;8.468;2023-06-24T08:57:04;3.80;;;3.40;;
10537;SDS011;5317;49.048;8.468;2023-06-24T08:59:36;4.77;;;4.13;;
10537;SDS011;5317;49.048;8.468;2023-06-24T09:02:03;5.20;;;3.43;;
10537;SDS011;5317;49.048;8.468;2023-06-24T09:04:30;4.47;;;4.07;;
10537;SDS011;5317;49.048;8.468;2023-06-24T09:07:03;4.20;;;3.80;;
10537;SDS011;5317;49.048;8.468;2023-06-24T09:09:30;3.97;;;3.57;;
10537;SDS011;5317;49.048;8.468;2023-06-24T09:11:59;4.10;;;3.77;;
10537;SDS011;5317;49.048;8.468;2023-06-24T09:14:30;5.43;;;3.70;;
10537;SDS011;5317;49.048;8.468;2023-06-24T09:17:05;4.80;;;3.60;;
10537;SDS011;5317;49.048;8.468;2023-06-24T09:19:37;4.13;;;3.40;;
10537;SDS011;5317;49.048;8.468;2023-06-24T09:22:05;3.80;;;3.40;;
10537;SDS011;5317;49.048;8.468;2023-06-24T09:24:36;7.03;;;4.17;;
10537;SDS011;5317;49.048;8.468;2023-06-24T09:27:03;4.27;;;3.87;;
10537;SDS011;5317;49.048;8.468;2023-06-24T09:29:32;4.37;;;3.70;;
10537;SDS011;5317;49.048;8.468;2023-06-24T09:32:05;4.10;;;3.70;;
10537;SDS011;5317;49.048;8.468;2023-06-24T09:34:32;3.87;;;3.40;;
10537;SDS011;5317;49.048;8.468;2023-06-24T09:37:03;3.60;;;3.30;;
10537;SDS011;5317;49.048;8.468;2023-06-24T09:39:34;3.40;;;3.10;;
10537;SDS011;5317;49.048;8.468;2023-06-24T09:42:04;4.10;;;3.67;;
10537;SDS011;5317;49.048;8.468;2023-06-24T09:44:32;4.30;;;3.63;;
10537;SDS011;5317;49.048;8.468;2023-06-24T09:46:59;3.60;;;3.30;;
10537;SDS011;5317;49.048;8.468;2023-06-24T09:49:31;3.53;;;3.13;;
10537;SDS011;5317;49.048;8.468;2023-06-24T09:51:58;3.80;;;3.50;;
10537;SDS011;5317;49.048;8.468;2023-06-24T09:54:28;3.37;;;3.07;;
10537;SDS011;5317;49.048;8.468;2023-06-24T09:56:56;3.63;;;3.33;;
10537;SDS011;5317;49.048;8.468;2023-06-24T09:59:27;3.60;;;3.30;;
10537;SDS011;5317;49.048;8.468;2023-06-24T10:01:58;3.30;;;3.00;;
10537;SDS011;5317;49.048;8.468;2023-06-24T10:04:27;3.77;;;2.83;;
10537;SDS011;5317;49.048;8.468;2023-06-24T10:06:54;3.30;;;3.00;;
10537;SDS011;5317;49.048;8.468;2023-06-24T10:09:21;3.37;;;3.07;;
10537;SDS011;5317;49.048;8.468;2023-06-24T10:11:48;3.30;;;2.87;;
10537;SDS011;5317;49.048;8.468;2023-06-24T10:14:15;3.13;;;2.87;;
10537;SDS011;5317;49.048;8.468;2023-06-24T10:16:43;3.23;;;2.93;;
10537;SDS011;5317;49.048;8.468;2023-06-24T10:19:13;3.43;;;3.13;;
10537;SDS011;5317;49.048;8.468;2023-06-24T10:21:49;3.73;;;3.17;;
10537;SDS011;5317;49.048;8.468;2023-06-24T10:24:29;3.00;;;2.73;;
10537;SDS011;5317;49.048;8.468;2023-06-24T10:27:01;3.93;;;3.53;;
10537;SDS011;5317;49.048;8.468;2023-06-24T10:29:32;3.30;;;3.00;;
10537;SDS011;5317;49.048;8.468;2023-06-24T10:32:01;3.90;;;3.50;;
10537;SDS011;5317;49.048;8.468;2023-06-24T10:34:32;3.40;;;3.10;;
10537;SDS011;5317;49.048;8.468;2023-06-24T10:37:07;3.50;;;3.20;;
10537;SDS011;5317;49.048;8.468;2023-06-24T10:39:39;3.67;;;3.03;;
10537;SDS011;5317;49.048;8.468;2023-06-24T10:45:12;3.73;;;3.43;;
10537;SDS011;5317;49.048;8.468;2023-06-24T10:47:41;4.20;;;3.80;;
10537;SDS011;5317;49.048;8.468;2023-06-24T10:50:11;3.60;;;3.30;;
10537;SDS011;5317;49.048;8.468;2023-06-24T10:52:41;3.73;;;3.43;;
10537;SDS011;5317;49.048;8.468;2023-06-24T10:55:09;3.47;;;3.17;;
10537;SDS011;5317;49.048;8.468;2023-06-24T10:57:36;4.03;;;3.20;;
10537;SDS011;5317;49.048;8.468;2023-06-24T11:00:03;3.50;;;3.20;;
10537;SDS011;5317;49.048;8.468;2023-06-24T11:02:31;3.23;;;2.93;;
10537;SDS011;5317;49.048;8.468;2023-06-24T11:04:58;3.87;;;3.50;;
10537;SDS011;5317;49.048;8.468;2023-06-24T11:07:28;3.30;;;3.00;;
10537;SDS011;5317;49.048;8.468;2023-06-24T11:09:59;3.13;;;2.87;;
10537;SDS011;5317;49.048;8.468;2023-06-24T11:12:29;3.70;;;3.40;;
10537;SDS011;5317;49.048;8.468;2023-06-24T11:14:57;3.70;;;3.40;;
10537;SDS011;5317;49.048;8.468;2023-06-24T11:17:24;3.57;;;3.20;;
10537;SDS011;5317;49.048;8.468;2023-06-24T11:19:52;3.97;;;3.07;;
10537;SDS011;5317;49.048;8.468;2023-06-24T11:22:19;3.50;;;3.17;;
10537;SDS011;5317;49.048;8.468;2023-06-24T11:24:46;3.40;;;3.10;;
10537;SDS011;5317;49.048;8.468;2023-06-24T11:27:15;3.33;;;3.03;;
10537;SDS011;5317;49.048;8.468;2023-06-24T11:29:42;3.57;;;3.27;;
10537;SDS011;5317;49.048;8.468;2023-06-24T11:32:10;3.40;;;3.10;;
10537;SDS011;5317;49.048;8.468;2023-06-24T11:34:37;3.40;;;3.10;;
10537;SDS011;5317;49.048;8.468;2023-06-24T11:37:08;3.20;;;2.90;;
10537;SDS011;5317;49.048;8.468;2023-06-24T11:39:36;3.73;;;3.40;;
10537;SDS011;5317;49.048;8.468;2023-06-24T11:42:05;5.37;;;3.60;;
10537;SDS011;5317;49.048;8.468;2023-06-24T11:44:35;3.40;;;3.10;;
10537;SDS011;5317;49.048;8.468;2023-06-24T11:47:07;3.87;;;3.57;;
10537;SDS011;5317;49.048;8.468;2023-06-24T11:49:48;3.93;;;3.53;;
10537;SDS011;5317;49.048;8.468;2023-06-24T11:52:16;3.90;;;3.50;;
10537;SDS011;5317;49.048;8.468;2023-06-24T11:54:43;3.70;;;3.40;;
10537;SDS011;5317;49.048;8.468;2023-06-24T11:57:10;3.67;;;3.37;;
10537;SDS011;5317;49.048;8.468;2023-06-24T11:59:39;3.57;;;3.27;;
10537;SDS011;5317;49.048;8.468;2023-06-24T12:02:06;3.43;;;3.13;;
10537;SDS011;5317;49.048;8.468;2023-06-24T12:04:33;3.70;;;3.40;;
10537;SDS011;5317;49.048;8.468;2023-06-24T12:07:02;3.30;;;3.00;;
10537;SDS011;5317;49.048;8.468;2023-06-24T12:09:29;3.40;;;3.10;;
10537;SDS011;5317;49.048;8.468;2023-06-24T12:11:56;3.57;;;3.23;;
10537;SDS011;5317;49.048;8.468;2023-06-24T12:14:23;3.10;;;2.90;;
10537;SDS011;5317;49.048;8.468;2023-06-24T12:16:51;3.60;;;3.30;;
10537;SDS011;5317;49.048;8.468;2023-06-24T12:19:18;3.30;;;3.00;;
10537;SDS011;5317;49.048;8.468;2023-06-24T12:21:45;3.37;;;3.07;;
10537;SDS011;5317;49.048;8.468;2023-06-24T12:24:12;2.90;;;2.70;;
10537;SDS011;5317;49.048;8.468;2023-06-24T12:26:39;3.27;;;2.97;;
10537;SDS011;5317;49.048;8.468;2023-06-24T12:29:06;3.37;;;3.07;;
10537;SDS011;5317;49.048;8.468;2023-06-24T12:31:33;3.23;;;2.60;;
10537;SDS011;5317;49.048;8.468;2023-06-24T12:34:01;3.47;;;3.17;;
10537;SDS011;5317;49.048;8.468;2023-06-24T12:36:28;3.70;;;3.40;;
10537;SDS011;5317;49.048;8.468;2023-06-24T12:38:55;3.37;;;2.73;;
10537;SDS011;5317;49.048;8.468;2023-06-24T12:41:21;5.93;;;3.90;;
10537;SDS011;5317;49.048;8.468;2023-06-24T12:43:48;3.60;;;3.30;;
10537;SDS011;5317;49.048;8.468;2023-06-24T12:46:15;3.57;;;3.27;;
10537;SDS011;5317;49.048;8.468;2023-06-24T12:48:42;3.57;;;3.27;;
10537;SDS011;5317;49.048;8.468;2023-06-24T12:51:10;3.50;;;3.20;;
10537;SDS011;5317;49.048;8.468;2023-06-24T12:53:37;3.50;;;3.20;;
10537;SDS011;5317;49.048;8.468;2023-06-24T12:56:04;3.40;;;3.10;;
10537;SDS011;5317;49.048;8.468;2023-06-24T12:58:31;3.53;;;3.23;;
10537;SDS011;5317;49.048;8.468;2023-06-24T13:00:58;3.00;;;2.73;;
10537;SDS011;5317;49.048;8.468;2023-06-24T13:03:25;4.23;;;3.03;;
10537;SDS011;5317;49.048;8.468;2023-06-24T13:05:52;3.20;;;2.90;;
10537;SDS011;5317;49.048;8.468;2023-06-24T13:08:20;3.30;;;3.00;;
10537;SDS011;5317;49.048;8.468;2023-06-24T13:10:47;3.27;;;2.90;;
10537;SDS011;5317;49.048;8.468;2023-06-24T13:13:14;3.30;;;3.00;;
10537;SDS011;5317;49.048;8.468;2023-06-24T13:15:41;3.43;;;3.03;;
10537;SDS011;5317;49.048;8.468;2023-06-24T13:18:07;3.57;;;3.03;;
10537;SDS011;5317;49.048;8.468;2023-06-24T13:20:34;3.23;;;2.93;;
10537;SDS011;5317;49.048;8.468;2023-06-24T13:23:01;3.60;;;3.30;;
10537;SDS011;5317;49.048;8.468;2023-06-24T13:25:29;4.03;;;3.00;;
10537;SDS011;5317;49.048;8.468;2023-06-24T13:27:56;3.10;;;2.90;;
10537;SDS011;5317;49.048;8.468;2023-06-24T13:30:23;3.23;;;2.93;;
10537;SDS011;5317;49.048;8.468;2023-06-24T13:32:50;2.90;;;2.70;;
10537;SDS011;5317;49.048;8.468;2023-06-24T13:35:17;4.07;;;3.17;;
10537;SDS011;5317;49.048;8.468;2023-06-24T13:37:44;3.30;;;3.07;;
10537;SDS011;5317;49.048;8.468;2023-06-24T13:40:12;2.80;;;2.60;;
10537;SDS011;5317;49.048;8.468;2023-06-24T13:42:40;3.30;;;3.00;;
10537;SDS011;5317;49.048;8.468;2023-06-24T13:45:07;3.30;;;3.00;;
10537;SDS011;5317;49.048;8.468;2023-06-24T13:47:35;3.13;;;2.93;;
10537;SDS011;5317;49.048;8.468;2023-06-24T13:50:02;4.10;;;3.37;;
10537;SDS011;5317;49.048;8.468;2023-06-24T13:52:29;3.43;;;3.13;;
10537;SDS011;5317;49.048;8.468;2023-06-24T13:54:56;3.97;;;3.00;;
10537;SDS011;5317;49.048;8.468;2023-06-24T13:57:23;3.50;;;3.20;;
10537;SDS011;5317;49.048;8.468;2023-06-24T13:59:51;3.30;;;3.00;;
10537;SDS011;5317;49.048;8.468;2023-06-24T14:02:18;3.43;;;3.00;;
10537;SDS011;5317;49.048;8.468;2023-06-24T14:04:45;3.30;;;3.00;;
10537;SDS011;5317;49.048;8.468;2023-06-24T14:07:13;3.23;;;2.93;;
10537;SDS011;5317;49.048;8.468;2023-06-24T14:09:39;3.27;;;3.00;;
10537;SDS011;5317;49.048;8.468;2023-06-24T14:12:07;3.57;;;3.27;;
10537;SDS011;5317;49.048;8.468;2023-06-24T14:14:35;3.40;;;3.10;;
10537;SDS011;5317;49.048;8.468;2023-06-24T14:17:05;3.20;;;2.80;;
10537;SDS011;5317;49.048;8.468;2023-06-24T14:19:36;3.50;;;2.87;;
10537;SDS011;5317;49.048;8.468;2023-06-24T14:22:04;3.20;;;2.90;;
10537;SDS011;5317;49.048;8.468;2023-06-24T14:24:31;3.00;;;2.73;;
10537;SDS011;5317;49.048;8.468;2023-06-24T14:27:02;3.30;;;3.00;;
10537;SDS011;5317;49.048;8.468;2023-06-24T14:29:30;2.90;;;2.70;;
10537;SDS011;5317;49.048;8.468;2023-06-24T14:31:57;3.20;;;3.00;;
10537;SDS011;5317;49.048;8.468;2023-06-24T14:34:25;3.53;;;2.90;;
10537;SDS011;5317;49.048;8.468;2023-06-24T14:36:54;3.03;;;2.83;;
10537;SDS011;5317;49.048;8.468;2023-06-24T14:39:21;3.63;;;2.70;;
10537;SDS011;5317;49.048;8.468;2023-06-24T14:41:48;3.40;;;3.10;;
10537;SDS011;5317;49.048;8.468;2023-06-24T14:44:15;3.20;;;2.93;;
10537;SDS011;5317;49.048;8.468;2023-06-24T14:46:41;3.73;;;2.93;;
10537;SDS011;5317;49.048;8.468;2023-06-24T14:49:08;3.10;;;2.80;;
10537;SDS011;5317;49.048;8.468;2023-06-24T14:51:37;3.17;;;2.87;;
10537;SDS011;5317;49.048;8.468;2023-06-24T14:54:03;3.30;;;3.00;;
10537;SDS011;5317;49.048;8.468;2023-06-24T14:56:32;2.80;;;2.60;;
10537;SDS011;5317;49.048;8.468;2023-06-24T14:58:59;3.03;;;2.73;;
10537;SDS011;5317;49.048;8.468;2023-06-24T15:01:26;4.23;;;3.23;;
10537;SDS011;5317;49.048;8.468;2023-06-24T15:03:53;4.83;;;3.17;;
10537;SDS011;5317;49.048;8.468;2023-06-24T15:06:19;3.47;;;3.17;;
10537;SDS011;5317;49.048;8.468;2023-06-24T15:08:48;4.30;;;3.00;;
10537;SDS011;5317;49.048;8.468;2023-06-24T15:11:14;3.27;;;2.97;;
10537;SDS011;5317;49.048;8.468;2023-06-24T15:13:41;3.47;;;3.17;;
10537;SDS011;5317;49.048;8.468;2023-06-24T15:16:08;5.37;;;3.23;;